createdAt,value
2023-03-02T00:02:54.253Z,4.16
2023-03-02T00:07:58.006Z,4.20
2023-03-02T00:12:59.691Z,4.20
2023-03-02T00:18:01.237Z,4.24
2023-03-02T00:23:02.744Z,4.14
2023-03-02T00:28:04.442Z,4.24
2023-03-02T00:33:06.026Z,4.24
2023-03-02T00:38:07.948Z,4.20
2023-03-02T00:43:09.482Z,4.16
2023-03-02T00:48:11.036Z,4.19
2023-03-02T00:53:12.678Z,4.06
2023-03-02T00:58:14.187Z,4.06
2023-03-02T01:03:16.089Z,4.23
2023-03-02T01:08:17.705Z,4.23
2023-03-02T01:13:21.003Z,4.19
2023-03-02T01:24:51.294Z,4.04
2023-03-02T01:29:52.946Z,4.01
2023-03-02T01:34:55.063Z,4.08
2023-03-02T01:39:56.645Z,4.07
2023-03-02T01:44:58.406Z,4.13
2023-03-02T01:50:18.926Z,4.11
2023-03-02T01:55:24.954Z,4.07
2023-03-02T02:00:31.862Z,4.11
2023-03-02T02:05:33.728Z,4.28
2023-03-02T02:10:35.657Z,4.01
2023-03-02T02:15:40.188Z,3.84
2023-03-02T02:20:44.785Z,4.01
2023-03-02T02:25:52.519Z,3.92
2023-03-02T02:31:18.998Z,3.91
2023-03-02T02:36:26.370Z,3.90
2023-03-02T02:41:34.186Z,3.85
2023-03-02T02:46:36.209Z,3.86
2023-03-02T02:51:37.852Z,3.88
2023-03-02T02:56:39.704Z,3.84
2023-03-02T03:01:45.280Z,3.85
2023-03-02T03:06:56.869Z,3.86
2023-03-02T03:12:16.561Z,3.89
2023-03-02T03:17:18.717Z,3.83
2023-03-02T03:22:35.150Z,3.83
2023-03-02T03:27:37.567Z,3.95
2023-03-02T03:32:40.936Z,3.99
2023-03-02T03:37:43.098Z,3.91
2023-03-02T03:42:45.945Z,3.99
2023-03-02T03:47:47.970Z,4.12
2023-03-02T03:52:49.877Z,4.05
2023-03-02T03:57:56.869Z,3.98
2023-03-02T04:02:59.119Z,4.03
2023-03-02T04:08:02.701Z,3.93
2023-03-02T04:13:05.908Z,3.88
2023-03-02T04:18:08.820Z,4.03
2023-03-02T04:23:11.556Z,4.00
2023-03-02T04:28:17.107Z,4.01
2023-03-02T04:33:20.119Z,3.98
2023-03-02T04:38:23.380Z,4.01
2023-03-02T04:43:26.012Z,3.94
2023-03-02T04:48:27.613Z,3.90
2023-03-02T04:53:29.238Z,3.94
2023-03-02T04:58:30.934Z,3.81
2023-03-02T05:03:32.668Z,3.74
2023-03-02T05:08:34.809Z,3.51
2023-03-02T05:13:36.492Z,3.48
2023-03-02T05:18:38.090Z,3.65
2023-03-02T05:23:40.187Z,3.79
2023-03-02T05:28:42.239Z,3.94
2023-03-02T05:33:43.864Z,4.01
2023-03-02T05:38:45.372Z,3.87
2023-03-02T05:43:47.126Z,3.98
2023-03-02T05:48:49.475Z,3.98
2023-03-02T05:53:51.175Z,4.02
2023-03-02T05:58:52.681Z,4.05
2023-03-02T06:03:54.136Z,4.08
2023-03-02T06:08:55.678Z,4.12
2023-03-02T06:13:57.294Z,4.02
2023-03-02T06:18:59.269Z,4.04
2023-03-02T06:24:00.732Z,3.98
2023-03-02T06:29:02.237Z,4.03
2023-03-02T06:34:03.746Z,4.08
2023-03-02T06:39:06.786Z,4.05
2023-03-02T06:44:08.390Z,4.12
2023-03-02T06:49:12.969Z,4.23
2023-03-02T06:54:15.397Z,4.29
2023-03-02T06:59:16.939Z,4.27
2023-03-02T07:04:18.599Z,4.33
2023-03-02T07:09:20.291Z,4.43
2023-03-02T07:14:21.750Z,4.34
2023-03-02T07:19:23.334Z,4.37
2023-03-02T07:24:24.984Z,4.32
2023-03-02T07:29:26.638Z,4.34
2023-03-02T07:34:28.368Z,4.36
2023-03-02T07:39:30.123Z,4.34
2023-03-02T07:44:31.759Z,4.38
2023-03-02T07:49:33.308Z,4.42
2023-03-02T07:54:34.815Z,4.38
2023-03-02T07:59:36.407Z,4.34
2023-03-02T08:04:37.984Z,4.34
2023-03-02T08:09:40.135Z,4.38
2023-03-02T08:14:41.665Z,4.38
2023-03-02T08:19:43.213Z,4.48
2023-03-02T08:24:44.775Z,4.49
2023-03-02T08:29:46.308Z,4.58
2023-03-02T08:34:47.822Z,4.58
2023-03-02T08:39:49.350Z,4.61
2023-03-02T08:44:50.903Z,4.71
2023-03-02T08:49:52.421Z,4.66
2023-03-02T08:54:54.020Z,4.55
2023-03-02T08:59:55.756Z,4.69
2023-03-02T09:04:57.306Z,4.83
2023-03-02T09:09:58.778Z,4.77
2023-03-02T09:15:00.338Z,5.03
2023-03-02T09:20:01.856Z,5.04
2023-03-02T09:25:05.043Z,4.96
2023-03-02T09:30:07.693Z,5.09
2023-03-02T09:35:09.652Z,5.17
2023-03-02T09:40:33.153Z,5.27
2023-03-02T09:45:54.290Z,5.24
2023-03-02T09:51:22.314Z,5.17
2023-03-02T09:56:24.007Z,5.21
2023-03-02T10:01:37.176Z,5.25
2023-03-02T10:06:38.741Z,5.12
2023-03-02T10:12:00.244Z,5.03
2023-03-02T10:17:26.878Z,4.98
2023-03-02T10:22:52.731Z,4.99
2023-03-02T10:28:05.590Z,5.08
2023-03-02T10:33:15.043Z,5.19
2023-03-02T10:38:22.612Z,5.23
2023-03-02T10:43:31.575Z,5.27
2023-03-02T10:48:33.454Z,5.18
2023-03-02T10:53:34.956Z,5.21
2023-03-02T10:58:36.434Z,5.21
2023-03-02T11:03:37.998Z,5.30
2023-03-02T11:08:39.534Z,5.31
2023-03-02T11:13:41.066Z,5.33
2023-03-02T11:18:48.444Z,5.40
2023-03-02T11:24:04.982Z,5.42
2023-03-02T11:29:13.511Z,5.46
2023-03-02T11:34:27.177Z,5.55
2023-03-02T11:39:55.080Z,5.62
2023-03-02T11:45:01.809Z,5.67
2023-03-02T11:50:05.749Z,5.73
2023-03-02T11:55:12.969Z,5.65
2023-03-02T12:00:42.497Z,5.62
2023-03-02T12:05:47.310Z,5.69
2023-03-02T12:11:07.645Z,5.78
2023-03-02T12:16:18.288Z,5.88
2023-03-02T12:21:21.929Z,5.82
2023-03-02T12:26:28.406Z,5.83
2023-03-02T12:31:55.389Z,5.90
2023-03-02T12:37:02.392Z,6.06
2023-03-02T12:42:38.128Z,5.94
2023-03-02T12:47:44.720Z,5.95
2023-03-02T12:52:57.513Z,6.04
2023-03-02T12:58:01.037Z,6.04
2023-03-02T13:03:03.208Z,6.00
2023-03-02T13:08:04.892Z,6.02
2023-03-02T13:13:18.750Z,6.09
2023-03-02T13:18:26.170Z,6.22
2023-03-02T13:23:30.195Z,6.25
2023-03-02T13:28:37.793Z,6.29
2023-03-02T13:33:44.917Z,6.23
2023-03-02T13:38:50.139Z,6.38
2023-03-02T13:43:51.717Z,6.36
2023-03-02T13:49:09.040Z,6.28
2023-03-02T13:54:15.117Z,6.25
2023-03-02T13:59:18.576Z,6.46
2023-03-02T14:04:22.279Z,6.35
2023-03-02T14:09:23.821Z,6.38
2023-03-02T14:14:27.579Z,6.43
2023-03-02T14:19:29.208Z,6.38
2023-03-02T14:24:30.750Z,6.43
2023-03-02T14:29:33.435Z,6.42
2023-03-02T14:34:37.052Z,6.33
2023-03-02T14:39:40.988Z,6.41
2023-03-02T14:44:43.564Z,6.33
2023-03-02T14:49:45.561Z,6.35
2023-03-02T14:54:54.143Z,6.47
2023-03-02T14:59:56.726Z,6.44
2023-03-02T15:04:58.286Z,6.41
2023-03-02T15:09:59.920Z,6.41
2023-03-02T15:15:01.734Z,6.19
2023-03-02T15:20:03.885Z,6.17
2023-03-02T15:25:05.794Z,6.36
2023-03-02T15:30:07.977Z,6.13
2023-03-02T15:35:09.694Z,6.24
2023-03-02T15:40:11.911Z,6.08
2023-03-02T15:45:13.479Z,5.96
2023-03-02T15:50:15.094Z,6.04
2023-03-02T15:55:16.713Z,6.01
2023-03-02T16:00:18.721Z,6.08
2023-03-02T16:05:20.237Z,5.89
2023-03-02T16:10:21.752Z,5.87
2023-03-02T16:15:23.307Z,5.96
2023-03-02T16:20:24.803Z,5.95
2023-03-02T16:25:26.294Z,5.88
2023-03-02T16:30:28.771Z,5.81
2023-03-02T16:35:32.818Z,5.86
2023-03-02T16:40:34.375Z,5.80
2023-03-02T16:45:36.692Z,5.71
2023-03-02T16:50:38.241Z,5.73
2023-03-02T16:55:39.752Z,5.50
2023-03-02T17:00:41.272Z,5.54
2023-03-02T17:05:43.414Z,5.44
2023-03-02T17:10:44.989Z,5.35
2023-03-02T17:15:46.480Z,5.14
2023-03-02T17:20:51.707Z,5.23
2023-03-02T17:25:53.773Z,5.31
2023-03-02T17:30:55.557Z,5.26
2023-03-02T17:35:57.150Z,5.30
2023-03-02T17:41:02.146Z,5.19
2023-03-02T17:46:21.273Z,5.17
2023-03-02T17:51:24.403Z,5.17
2023-03-02T17:56:27.892Z,5.18
2023-03-02T18:01:29.772Z,5.18
2023-03-02T18:06:31.322Z,5.15
2023-03-02T18:11:33.022Z,5.10
2023-03-02T18:16:34.882Z,5.08
2023-03-02T18:21:37.078Z,5.11
2023-03-02T18:26:38.605Z,5.07
2023-03-02T18:31:40.184Z,4.96
2023-03-02T18:36:41.807Z,4.93
2023-03-02T18:41:43.406Z,4.85
2023-03-02T18:46:45.030Z,4.77
2023-03-02T18:51:46.767Z,4.76
2023-03-02T18:56:48.263Z,4.83
2023-03-02T19:01:49.854Z,4.64
2023-03-02T19:06:51.884Z,4.64
2023-03-02T19:11:53.618Z,4.56
2023-03-02T19:16:55.105Z,4.60
2023-03-02T19:21:56.643Z,4.51
2023-03-02T19:26:58.278Z,4.53
2023-03-02T19:32:00.017Z,4.52
2023-03-02T19:37:01.559Z,4.46
2023-03-02T19:42:03.394Z,4.62
2023-03-02T19:47:04.925Z,4.74
2023-03-02T19:52:06.397Z,4.50
2023-03-02T19:57:07.912Z,4.61
2023-03-02T20:02:09.437Z,4.35
2023-03-02T20:07:10.951Z,4.32
2023-03-02T20:12:12.531Z,4.34
2023-03-02T20:17:13.994Z,4.39
2023-03-02T20:22:16.426Z,4.34
2023-03-02T20:27:18.191Z,4.31
2023-03-02T20:32:20.053Z,4.31
2023-03-02T20:37:21.610Z,4.40
2023-03-02T20:42:23.236Z,4.36
2023-03-02T20:47:24.815Z,4.41
2023-03-02T20:52:26.878Z,4.48
2023-03-02T20:57:28.409Z,4.47
2023-03-02T21:02:29.882Z,4.32
2023-03-02T21:07:31.458Z,4.48
2023-03-02T21:12:33.037Z,4.39
2023-03-02T21:17:34.766Z,4.39
2023-03-02T21:22:36.210Z,4.28
2023-03-02T21:27:38.775Z,4.24
2023-03-02T21:32:40.299Z,4.40
2023-03-02T21:37:43.202Z,4.50
2023-03-02T21:42:45.103Z,4.49
2023-03-02T21:47:46.622Z,4.48
2023-03-02T21:52:48.631Z,4.32
2023-03-02T21:57:50.161Z,4.40
2023-03-02T22:02:51.739Z,4.42
2023-03-02T22:07:53.381Z,4.49
2023-03-02T22:13:04.401Z,4.31
2023-03-02T22:18:11.608Z,4.19
2023-03-02T22:23:15.241Z,4.11
2023-03-02T22:28:23.189Z,4.34
2023-03-02T22:33:28.118Z,4.22
2023-03-02T22:38:30.672Z,4.27
2023-03-02T22:43:34.973Z,4.27
2023-03-02T22:48:38.056Z,4.36
2023-03-02T22:53:46.443Z,4.46
2023-03-02T22:58:50.276Z,4.43
2023-03-02T23:04:08.373Z,4.36
2023-03-02T23:09:09.861Z,4.46
2023-03-02T23:14:18.485Z,4.38
2023-03-02T23:19:20.546Z,4.19
2023-03-02T23:24:22.115Z,4.26
2023-03-02T23:29:23.683Z,4.30
2023-03-02T23:34:25.237Z,4.36
2023-03-02T23:39:26.955Z,4.27
2023-03-02T23:44:28.429Z,4.19
2023-03-02T23:49:29.935Z,4.20
2023-03-02T23:54:31.401Z,4.16
2023-03-02T23:59:32.875Z,4.27
